Terminal Aerodrome Forecast
Issued by NWS

Home | Current Version | Previous Version | Text Only | Print | Product List | Glossary On
Versions: 1 2 3 4 5 6 7 8 9 10 11 12 13 14 15
000
FTUS41 KPBZ 251307 AAA
TAFFKL
TAF AMD
KFKL 251307Z 2513/2612 21010KT P6SM SCT080
     FM251500 22012G22KT P6SM SCT050
     FM260000 20007KT P6SM BKN100
      AMD LTD TO CLD VIS AND WIND=

USA.gov is the U.S. government's official web portal to all federal, state and local government web resources and services.